aviador You're here:

SKCL Decoded Metar

CALI in COLOMBIA
Report Time2017-09-20 16:00:00
UTC Time2017-09-20 16:30:28
Flight Rules vfr VFR
WindVRB at 03 kt
Visibility9999 m
Phenomena:N/A
Clouds:Few 017 Hf
Scattered 100 Hf
Expected CloudBase > 3,600 ft AGL from Temp-Dew spread
CeilingNone
Temp28°C (ISA +19)
Dew Point19°C (58% RH)
Heat Index29.2°C
QNH1019 hPa
Density Alt5,489 ft
Elevation3,179 ft
Report Wrong Elevation
Raw Report
METAR SKCL 201600Z VRB03KT 9999 FEW017 SCT100 28/19 A3008=

Extra information for SKCL:More info

Metar Taf Metar & Taf Last 4 Metars F.Rules Stats Wind Profile Meteogram Temp Stats Airport Information Weather charts Add Link Nearby VenuesMetar ALERT Operation Metar Decoded Social comments